Airfield :
LOGIN :

Register | Disclaimer

   EN    FR    IT 

 










Legend :    VFR   Marginal VFR   IFR   Intensive IFR   Very Intensive IFR
Visi :
Ceiling :
>= 8 km
>= 3000ft
5 to 8 km
1000 to 3000 ft
1500m to 5 km
500 to 1000 ft
800 to 1500m
200 to 500 ft
< 800m
< 200 ft
Symbols :   Thunderstorms  Fog  Heavy snow  Heavy precipitations  Wind > 20 kt
SIGMETs :     Misc.  Thunderstorms  Icing  Turbulence  Mountain Waves  Volcanic Ashes







- Airport Elevation : 16 ft
- IATA code : AAE


DABB - Annaba-Rabah Bitat

CURRENT METAR :
  • 180630Z 35015KT 9999 FEW020 FEW026CB SCT033 10/04 Q1026

EXPIRED METARs :
  • 180600Z 35016KT 9999 FEW020TCU FEW026CB SCT033 11/04 Q1025
  • 180530Z 34012KT 300V360 8000 FEW020 FEW026CB BKN033 08/04 Q1025
  • 180500Z 26005KT 210V320 8000 FEW020 FEW026CB BKN033 08/06 Q1025
  • 180430Z 29006KT 230V360 8000 FEW020 FEW026CB BKN033 07/06 Q1025
  • 180400Z 29005KT 260V340 8000 FEW020 FEW026CB BKN033 07/06 Q1025

TAF TAF DABB
Valid from the 18 at 06:00 until the 19 at 06:00 UTC


180500Z 1806/1906 33014KT 8000 SCT016TCU FEW023CB BKN033
TEMPO 1806/1812 31015G25KT 4000 RA SCT010
PROB40
TEMPO 1812/1822 33015G25KT 3000 -TSRA
BECMG 1823/1901 24009KT
No reported NOTAMs for that airfield.



MET'MAP, your aeronautical weather chart ! - Copyright ORBIFLY December 2007 - Disclaimer

ORBIFLY MET'MAP TEAM :

Programming & Development : Alexandra Zaïnal
Concept & Development : Baudouin d'Aumeries
Co-Development & Prog : Marc-Olivier Méhu
Technical & hardware support : Manuel Goepfert

Contact : metmap@orbifly.com




SOURCES & CREDITS :

   NOAA